Details From KLUF - Luke AFB
To KGCN - GRAND CANYON NATIONAL PARK
Flight Number -
Tags generated
Created
Modified
Stats Distance 146 nm / 270 km
Max Altitude 19,400 ft / 5,913 m
Waypoints 3
Social Downloads 0
Likes 0
Share VATSIM

Download

Looking for another format? Having issues loading an existing format? Contact us
Advertisement - Login to hide

Notes

Basic altitude profile: - Ascent Rate: 2500ft/min - Ascent Speed: 250kts - Cruise Altitude: 35000ft - Cruise Speed: 420kts - Descent Rate: 1500ft/min - Descent Speed: 250kts

Route

KLUF MAIER KGCN

ID Type Via Altitude Latitude Longitude Leg Dist Tot Dist Heading (true) Name
O KLUF APT - 0 ft / 0 m 33.53498˚ -112.38318˚ - 0 nm - Luke AFB
MAIER FIX - 19,400 ft / 5,913 m 34.44644˚ -112.23025˚ 55 nm 55 nm 8° / 8° -
O KGCN APT - 0 ft / 0 m 35.95237˚ -112.14692˚ 90 nm 145 nm 3° / 3° GRAND CANYON NATIONAL PARK

Altitude Profile

Advertisement - Login to hide

KLUF

Details ICAO KLUF (LUF)
Name Luke AFB
Region United States
Timezone America/Phoenix (UTC-7.0)
Stats Elevation 1,084 ft / 330 m (AMSL)
Location 33.534975° -112.383177°
Runways 2
Magnetic Variation 10.444° E

METAR

KLUF 140958Z AUTO 01006KT 10SM CLR 05/M09 A2991 RMK AO2 SLP125 T00511095 VISNO RWY21 $

Decode

TAF

TAF TAF KLUF 140402Z 1404/1510 VRB06KT 9999 SKC QNH2989INS BECMG 1417/1418 02009KT 9999 SKC QNH2993INS TEMPO 1418/1424 35012G18KT BECMG 1423/1424 35012KT 9999 SKC QNH2997INS TX24/1421Z TN11/1410Z

Decode

Departure Runways

ID Width Length Bearing (true) Bearing (mag) Surface Threshold Offset Overrun Length
03L 150 ft / 46 m 10,019 ft / 3,054 m 42.42° 31.98° Asphalt 0 ft / 0 m 1,001 ft / 305 m
03R 150 ft / 46 m 9,909 ft / 3,020 m 42.43° 31.99° Concrete 0 ft / 0 m 1,001 ft / 305 m
21L 150 ft / 46 m 9,909 ft / 3,020 m 222.45° 212.01° Concrete 0 ft / 0 m 1,050 ft / 320 m
21R 150 ft / 46 m 10,019 ft / 3,054 m 222.43° 211.99° Asphalt 0 ft / 0 m 1,001 ft / 305 m

KGCN

Details ICAO KGCN (GCN)
Name GRAND CANYON NATIONAL PARK
Region United States
Timezone America/Phoenix (UTC-7.0)
Stats Elevation 6,609 ft / 2,014 m (AMSL)
Location 35.952369° -112.146919°
Runways 1
Magnetic Variation 10.744° E

METAR

KGCN 140954Z AUTO 06004KT 10SM CLR M07/M17 A3006 RMK AO2 SLP152 T10671167

Decode

TAF

KGCN 140537Z 1406/1506 VRB04KT P6SM SCT140 FM141500 05012G19KT P6SM SKC FM141800 05019G29KT P6SM SKC FM150100 04010KT P6SM SKC

Decode

Destination Runways

ID Width Length Bearing (true) Bearing (mag) Surface Threshold Offset Overrun Length
03 151 ft / 46 m 9,008 ft / 2,746 m 40.55° 29.81° Asphalt 0 ft / 0 m 0 ft / 0 m
21 151 ft / 46 m 9,008 ft / 2,746 m 220.57° 209.83° Asphalt 0 ft / 0 m 0 ft / 0 m

Approach Navaids

Runway Type Ident Frequency Range Bearing (true) Bearing (mag) Slope Elevation
03 Localiser IGCN 108.90 MHz 18 nm / 33 km 40.52° 29.77° - 6,609 ft / 2,014 m (AMSL)
03 Glidescope IGCN 108.90 MHz 10 nm / 19 km 40.56° 29.82° 3.00° 6,535 ft / 1,992 m (AMSL)
03 DME IGCN 108.90 MHz 18 nm / 33 km - - - 6,609 ft / 2,014 m (AMSL)